createdAt,value
2018-06-29T03:25:11.286Z,16.88
2018-06-29T03:26:11.162Z,16.88
2018-06-29T03:27:11.068Z,16.88
2018-06-29T03:28:12.037Z,16.88
2018-06-29T03:29:11.057Z,22.50
2018-06-29T03:30:10.837Z,22.50
2018-06-29T03:31:11.367Z,22.50
2018-06-29T03:32:10.963Z,22.50
2018-06-29T03:33:10.991Z,22.50
2018-06-29T03:34:10.526Z,28.13
2018-06-29T03:35:10.436Z,28.13
2018-06-29T03:36:10.389Z,28.13
2018-06-29T03:37:10.289Z,28.13
2018-06-29T03:38:10.240Z,33.75
2018-06-29T03:39:10.127Z,33.75
2018-06-29T03:40:10.061Z,33.75
2018-06-29T03:41:09.987Z,33.75
2018-06-29T03:42:09.899Z,39.38
2018-06-29T03:43:09.838Z,39.38
2018-06-29T03:44:09.772Z,39.38
2018-06-29T03:45:09.657Z,39.38
2018-06-29T03:46:09.617Z,45.00
2018-06-29T03:47:09.495Z,45.00
2018-06-29T03:48:09.524Z,45.00
2018-06-29T03:49:09.357Z,45.00
2018-06-29T03:50:09.337Z,50.63
2018-06-29T03:51:09.196Z,50.63
2018-06-29T03:52:09.141Z,50.63
2018-06-29T03:53:09.026Z,56.25
2018-06-29T03:54:10.011Z,56.25
2018-06-29T03:55:08.864Z,56.25
2018-06-29T03:56:08.859Z,56.25
2018-06-29T03:57:08.706Z,61.88
2018-06-29T03:58:08.672Z,61.88
2018-06-29T03:59:08.573Z,61.88
2018-06-29T04:00:08.519Z,67.50
2018-06-29T04:01:08.391Z,67.50
2018-06-29T04:02:08.397Z,67.50
2018-06-29T04:03:08.235Z,73.13
2018-06-29T04:04:08.232Z,73.13
2018-06-29T04:05:08.088Z,73.13
2018-06-29T04:07:53.503Z,78.75
2018-06-29T04:07:54.035Z,78.75
2018-06-29T04:08:53.938Z,84.38
2018-06-29T04:09:53.872Z,84.38
2018-06-29T04:10:53.780Z,84.38
2018-06-29T04:11:53.702Z,90.00
2018-06-29T04:12:53.638Z,90.00
2018-06-29T04:13:53.550Z,90.00
2018-06-29T04:14:53.487Z,90.00
2018-06-29T04:15:53.377Z,95.63
2018-06-29T04:16:53.311Z,95.63
2018-06-29T04:17:53.235Z,95.63
2018-06-29T04:20:35.307Z,101.25
2018-06-29T04:21:37.193Z,101.25
2018-06-29T04:22:35.117Z,101.25
2018-06-29T04:23:35.050Z,106.88
2018-06-29T04:24:34.956Z,106.88
2018-06-29T04:25:34.916Z,106.88
2018-06-29T04:26:34.865Z,106.88
2018-06-29T04:29:16.778Z,112.50
2018-06-29T04:30:16.707Z,112.50
2018-06-29T04:31:16.648Z,118.13
2018-06-29T04:32:16.554Z,118.13
2018-06-29T04:33:16.460Z,118.13
2018-06-29T04:34:16.452Z,123.75
2018-06-29T04:35:16.452Z,123.75
2018-06-29T04:36:16.439Z,123.75
2018-06-29T04:37:16.881Z,123.75
2018-06-29T04:38:16.139Z,129.38
2018-06-29T04:39:15.989Z,129.38
2018-06-29T04:40:15.927Z,129.38
2018-06-29T04:41:15.855Z,129.38
2018-06-29T04:42:15.759Z,135.00
2018-06-29T04:43:15.672Z,135.00
2018-06-29T04:44:15.616Z,135.00
2018-06-29T04:45:15.530Z,140.63
2018-06-29T04:46:15.469Z,140.63
2018-06-29T04:47:15.383Z,140.63
2018-06-29T04:48:15.296Z,146.25
2018-06-29T04:49:15.240Z,146.25
2018-06-29T04:50:15.155Z,146.25
2018-06-29T04:51:15.041Z,146.25
2018-06-29T04:52:14.995Z,151.88
2018-06-29T04:53:14.903Z,151.88
2018-06-29T04:54:14.819Z,157.50
2018-06-29T04:55:14.731Z,163.13
2018-06-29T04:56:14.656Z,168.75
2018-06-29T04:57:14.596Z,180.00
2018-06-29T04:58:14.514Z,185.63
2018-06-29T04:59:14.431Z,196.88
2018-06-29T05:00:14.348Z,208.13
2018-06-29T05:01:14.264Z,219.38
2018-06-29T05:02:15.234Z,225.00
2018-06-29T05:03:14.100Z,236.25
2018-06-29T05:05:56.289Z,450.00
2018-06-29T05:06:56.225Z,202.50
2018-06-29T05:07:56.158Z,185.63
2018-06-29T05:11:39.283Z,180.00
2018-06-29T05:12:39.253Z,174.38
2018-06-29T05:13:39.129Z,180.00
2018-06-29T05:16:21.285Z,180.00
2018-06-29T05:17:21.217Z,180.00
2018-06-29T05:18:21.168Z,180.00
2018-06-29T05:21:03.301Z,185.63
2018-06-29T05:22:03.234Z,185.63
2018-06-29T05:23:03.154Z,185.63
2018-06-29T05:24:03.067Z,185.63
2018-06-29T05:25:02.986Z,185.63
2018-06-29T05:26:02.901Z,191.25
2018-06-29T05:27:02.828Z,191.25
2018-06-29T05:28:03.761Z,191.25
2018-06-29T05:30:27.296Z,191.25
2018-06-29T05:31:27.226Z,191.25
2018-06-29T05:32:27.136Z,196.88
2018-06-29T05:33:27.086Z,196.88
2018-06-29T05:34:26.992Z,196.88
2018-06-29T05:35:26.901Z,196.88
2018-06-29T05:36:26.830Z,196.88
2018-06-29T05:37:26.758Z,196.88
2018-06-29T05:38:26.702Z,202.50
2018-06-29T05:39:26.600Z,202.50
2018-06-29T05:40:26.531Z,202.50
2018-06-29T05:41:26.523Z,202.50
2018-06-29T05:42:26.358Z,202.50
2018-06-29T05:43:27.304Z,202.50
2018-06-29T05:44:26.209Z,208.13
2018-06-29T05:45:26.140Z,208.13
2018-06-29T05:46:26.087Z,208.13
2018-06-29T05:47:25.965Z,208.13
2018-06-29T05:48:25.904Z,208.13
2018-06-29T05:51:07.813Z,208.13
2018-06-29T05:53:49.809Z,208.13
2018-06-29T05:54:49.731Z,213.75
2018-06-29T05:55:49.673Z,213.75
2018-06-29T05:56:49.576Z,213.75
2018-06-29T05:57:49.484Z,213.75
2018-06-29T05:58:49.436Z,213.75
2018-06-29T05:59:49.337Z,213.75
2018-06-29T06:00:49.266Z,213.75
2018-06-29T06:01:49.179Z,213.75
2018-06-29T06:02:49.103Z,219.38
2018-06-29T06:03:49.057Z,219.38
2018-06-29T06:04:48.958Z,219.38
2018-06-29T06:05:48.880Z,219.38
2018-06-29T06:06:48.784Z,219.38
2018-06-29T06:07:48.716Z,219.38
2018-06-29T06:08:48.689Z,219.38
2018-06-29T06:19:30.001Z,236.25
2018-06-29T06:20:29.893Z,236.25
2018-06-29T06:23:11.822Z,241.88
2018-06-29T06:24:11.738Z,241.88
2018-06-29T06:25:11.682Z,247.50
2018-06-29T06:27:53.838Z,253.13
2018-06-29T06:28:53.749Z,258.75
2018-06-29T06:29:53.962Z,264.38
2018-06-29T06:30:53.577Z,270.00
2018-06-29T06:31:53.496Z,275.63
2018-06-29T06:32:53.426Z,320.63
2018-06-29T06:33:53.336Z,669.38
2018-06-29T06:34:54.309Z,1136.25
2018-06-29T06:35:53.235Z,1456.88
2018-06-29T06:36:53.128Z,1552.50
2018-06-29T06:37:53.039Z,1704.38
2018-06-29T06:38:52.959Z,1771.88
2018-06-29T06:39:52.889Z,1766.25
2018-06-29T06:40:52.848Z,1760.63
2018-06-29T06:41:52.734Z,1771.88
2018-06-29T06:42:52.659Z,1867.50
2018-06-29T06:43:52.629Z,1929.38
2018-06-29T06:44:52.519Z,1873.13
2018-06-29T06:45:52.450Z,1946.25
2018-06-29T06:48:34.316Z,2036.25
2018-06-29T06:49:34.263Z,2047.50
2018-06-29T06:50:34.183Z,2086.88
2018-06-29T06:51:34.123Z,2137.50
2018-06-29T06:52:34.029Z,2109.38
2018-06-29T06:55:16.383Z,2058.75
2018-06-29T06:56:16.265Z,2092.50
2018-06-29T06:57:16.192Z,2160.00
2018-06-29T06:58:16.133Z,2092.50
2018-06-29T06:59:16.044Z,2227.50
2018-06-29T07:00:15.982Z,2446.88
2018-06-29T07:01:15.913Z,2486.25
2018-06-29T07:02:15.833Z,2171.25
2018-06-29T07:03:15.747Z,2227.50
2018-06-29T07:05:57.853Z,2407.50
2018-06-29T07:06:57.794Z,2289.38
2018-06-29T07:07:57.687Z,2295.00
2018-06-29T07:08:57.621Z,2452.50
2018-06-29T07:09:57.548Z,2272.50
2018-06-29T07:10:57.506Z,1800.00
2018-06-29T07:11:57.402Z,1513.13
2018-06-29T07:12:57.351Z,1423.13
2018-06-29T07:13:57.269Z,1530.00
2018-06-29T07:14:57.212Z,1558.13
2018-06-29T07:15:57.132Z,1569.38
2018-06-29T07:16:58.182Z,1513.13
2018-06-29T07:17:56.991Z,1406.25
2018-06-29T07:18:56.948Z,1282.50
2018-06-29T07:19:56.841Z,1231.88
2018-06-29T07:20:56.775Z,1271.25
2018-06-29T07:21:56.723Z,1372.50
2018-06-29T07:22:56.645Z,1361.25
2018-06-29T07:23:56.582Z,1254.38
2018-06-29T07:24:56.526Z,1198.13
2018-06-29T07:25:56.460Z,1215.00
2018-06-29T07:26:56.395Z,1220.63
2018-06-29T07:27:56.287Z,1198.13
2018-06-29T07:28:56.222Z,1141.88
2018-06-29T07:29:56.214Z,1113.75
2018-06-29T07:30:56.091Z,1125.00
2018-06-29T07:31:56.053Z,1153.13
2018-06-29T07:34:38.339Z,1068.75
2018-06-29T07:37:20.345Z,1046.25
2018-06-29T07:38:20.289Z,1136.25
2018-06-29T07:39:20.222Z,1136.25
2018-06-29T07:40:20.166Z,1147.50
2018-06-29T07:41:20.066Z,1164.38
2018-06-29T07:42:20.053Z,1192.50
2018-06-29T07:43:19.931Z,1203.75
2018-06-29T07:44:19.876Z,1226.25
2018-06-29T07:45:19.801Z,1276.88
2018-06-29T07:46:19.742Z,1620.00
2018-06-29T07:47:19.671Z,2520.00
2018-06-29T07:48:19.648Z,3346.88
2018-06-29T07:49:19.517Z,3690.00
2018-06-29T07:50:19.464Z,4027.50
2018-06-29T07:51:19.407Z,4044.38
2018-06-29T07:52:19.349Z,3988.13
2018-06-29T07:53:19.278Z,3982.50
2018-06-29T07:54:19.199Z,3853.13
2018-06-29T07:55:19.135Z,3819.38
2018-06-29T07:56:19.126Z,3836.25
2018-06-29T07:57:19.008Z,4038.75
2018-06-29T07:58:19.016Z,3920.63
2018-06-29T07:59:18.883Z,3819.38
2018-06-29T08:00:18.811Z,3841.88
2018-06-29T08:01:18.721Z,3931.88
2018-06-29T08:02:18.676Z,3819.38
2018-06-29T08:03:18.592Z,3611.25
2018-06-29T08:04:18.563Z,3656.25
2018-06-29T08:05:18.463Z,3791.25
2018-06-29T08:08:00.356Z,4145.63
2018-06-29T08:09:01.308Z,4134.38
2018-06-29T08:10:00.242Z,4078.13
2018-06-29T08:11:00.308Z,3943.13
2018-06-29T08:12:00.091Z,3960.00
2018-06-29T08:13:00.048Z,4038.75
2018-06-29T08:13:59.961Z,4185.00
2018-06-29T08:14:59.915Z,4365.00
2018-06-29T08:15:59.812Z,4269.38
2018-06-29T08:16:59.756Z,4331.25
2018-06-29T08:17:59.682Z,4280.63
2018-06-29T08:18:59.666Z,4207.50
2018-06-29T08:19:59.553Z,4252.50
2018-06-29T08:20:59.496Z,4460.63
2018-06-29T08:21:59.437Z,4415.63
2018-06-29T08:22:59.362Z,4241.25
2018-06-29T08:23:59.316Z,4111.88
2018-06-29T08:24:59.225Z,3881.25
2018-06-29T08:25:59.200Z,3853.13
2018-06-29T08:26:59.155Z,4179.38
2018-06-29T08:27:59.020Z,4168.13
2018-06-29T08:28:58.974Z,3712.50
2018-06-29T08:29:58.913Z,3352.50
2018-06-29T08:30:58.937Z,3751.88
2018-06-29T08:31:58.781Z,4072.50
2018-06-29T08:32:58.704Z,4263.75
2018-06-29T08:33:58.650Z,4410.00
2018-06-29T08:34:59.615Z,4522.50
2018-06-29T08:35:58.496Z,4410.00
2018-06-29T08:38:40.902Z,4291.88
2018-06-29T08:39:40.814Z,4066.88
2018-06-29T08:40:40.836Z,4218.75
2018-06-29T08:41:40.673Z,4398.75
2018-06-29T08:42:40.607Z,4263.75
2018-06-29T08:43:40.541Z,4027.50
2018-06-29T08:44:40.472Z,4156.88
2018-06-29T08:45:40.463Z,4488.75
2018-06-29T08:46:40.402Z,4556.25
2018-06-29T08:47:40.309Z,4308.75
2018-06-29T08:48:40.220Z,4353.75
2018-06-29T08:49:40.161Z,4331.25
2018-06-29T08:50:40.118Z,4370.63
2018-06-29T08:51:40.039Z,4359.38
2018-06-29T08:52:39.953Z,4365.00
2018-06-29T08:53:39.905Z,3802.50
2018-06-29T08:54:39.825Z,4449.38
2018-06-29T08:57:21.916Z,4550.63
2018-06-29T08:58:21.817Z,4494.38
2018-06-29T08:59:21.741Z,4286.25
2018-06-29T09:00:21.678Z,4038.75
2018-06-29T09:01:21.618Z,4348.13
2018-06-29T09:02:21.605Z,4657.50
2018-06-29T09:03:21.481Z,4640.63
2018-06-29T09:04:21.451Z,4556.25
2018-06-29T09:05:21.343Z,4460.63
2018-06-29T09:06:21.302Z,4500.00
2018-06-29T09:07:21.266Z,4623.75
2018-06-29T09:08:21.172Z,4595.63
2018-06-29T09:09:21.109Z,4438.13
2018-06-29T09:10:21.041Z,4477.50
2018-06-29T09:11:20.977Z,4533.75
2018-06-29T09:12:20.941Z,4539.38
2018-06-29T09:13:20.855Z,4522.50
2018-06-29T09:14:20.783Z,4612.50
2018-06-29T09:15:20.725Z,4640.63
2018-06-29T09:16:20.751Z,4635.00
2018-06-29T09:17:20.604Z,4657.50
2018-06-29T09:20:02.890Z,4775.63
2018-06-29T09:21:02.832Z,4860.00
2018-06-29T09:22:02.764Z,4606.88
2018-06-29T09:23:02.743Z,4522.50
2018-06-29T09:24:02.628Z,4505.63
2018-06-29T09:25:02.593Z,4494.38
2018-06-29T09:26:02.517Z,4590.00
2018-06-29T09:27:02.458Z,4741.88
2018-06-29T09:28:02.363Z,4708.13
2018-06-29T09:29:02.330Z,4708.13
2018-06-29T09:30:02.281Z,4556.25
2018-06-29T09:31:02.214Z,4623.75
2018-06-29T09:32:02.121Z,4578.75
2018-06-29T09:33:02.092Z,4410.00
2018-06-29T09:34:02.005Z,4505.63
2018-06-29T09:35:01.936Z,4696.88
2018-06-29T09:36:01.877Z,4387.50
2018-06-29T09:37:01.804Z,4466.25
2018-06-29T09:38:01.775Z,4590.00
2018-06-29T09:40:43.886Z,4618.13
2018-06-29T09:43:25.973Z,4786.88
2018-06-29T09:44:26.879Z,4629.38
2018-06-29T09:45:25.761Z,4618.13
2018-06-29T09:46:25.708Z,4713.75
2018-06-29T09:47:25.670Z,4668.75
2018-06-29T09:48:25.724Z,4342.50
2018-06-29T09:49:25.528Z,4500.00
2018-06-29T09:50:25.457Z,4775.63
2018-06-29T09:51:25.389Z,3729.38
2018-06-29T09:52:25.346Z,4871.25
2018-06-29T09:53:25.279Z,4848.75
2018-06-29T09:54:25.235Z,4955.63
2018-06-29T09:55:25.132Z,4972.50
2018-06-29T09:56:25.078Z,4798.13
2018-06-29T09:57:25.005Z,4179.38
2018-06-29T09:58:24.949Z,4635.00
2018-06-29T09:59:24.934Z,4758.75
2018-06-29T10:00:24.850Z,4657.50
2018-06-29T10:01:24.851Z,3240.00
2018-06-29T10:04:06.931Z,4758.75
2018-06-29T10:05:06.924Z,4803.75
2018-06-29T10:06:06.773Z,5006.25
2018-06-29T10:07:06.713Z,5023.13
2018-06-29T10:08:06.665Z,4854.38
2018-06-29T10:09:06.605Z,4905.00
2018-06-29T10:10:06.530Z,4983.75
2018-06-29T10:11:06.472Z,4764.38
2018-06-29T10:12:06.403Z,4978.13
2018-06-29T10:13:06.382Z,5298.75
2018-06-29T10:14:06.320Z,5152.50
2018-06-29T10:15:06.251Z,4921.88
2018-06-29T10:16:06.148Z,4882.50
2018-06-29T10:18:48.409Z,5023.13
2018-06-29T10:21:30.414Z,4831.88
2018-06-29T10:22:30.362Z,4162.50
2018-06-29T10:23:30.278Z,4156.88
2018-06-29T10:24:30.259Z,4972.50
2018-06-29T10:25:30.248Z,5225.63
2018-06-29T10:26:30.097Z,5006.25
2018-06-29T10:27:30.029Z,3954.38
2018-06-29T10:28:29.970Z,4809.38
2018-06-29T10:29:29.912Z,4893.75
2018-06-29T10:30:29.863Z,4460.63
2018-06-29T10:31:29.785Z,4674.38
2018-06-29T10:32:29.761Z,4713.75
2018-06-29T10:33:29.657Z,4792.50
2018-06-29T10:36:11.989Z,3706.88
2018-06-29T10:37:11.867Z,4573.13
2018-06-29T10:38:11.801Z,4651.88
2018-06-29T10:39:11.735Z,4685.63
2018-06-29T10:40:11.657Z,4488.75
2018-06-29T10:41:12.638Z,4381.88
2018-06-29T10:42:11.546Z,4753.13
2018-06-29T10:43:11.477Z,5220.00
2018-06-29T10:44:11.427Z,5175.00
2018-06-29T10:45:11.354Z,3830.63
2018-06-29T10:46:11.297Z,4893.75
2018-06-29T10:47:11.268Z,4275.00
2018-06-29T10:48:11.161Z,4933.13
2018-06-29T10:49:11.104Z,5107.50
2018-06-29T10:50:11.076Z,4972.50
2018-06-29T10:51:11.024Z,4758.75
2018-06-29T10:52:10.951Z,4854.38
2018-06-29T10:53:10.872Z,5006.25
2018-06-29T10:54:10.791Z,5034.38
2018-06-29T10:55:10.812Z,5073.75
2018-06-29T10:56:10.690Z,4815.00
2018-06-29T10:57:10.655Z,4916.25
2018-06-29T10:58:10.591Z,4786.88
2018-06-29T10:59:10.502Z,4809.38
2018-06-29T11:00:10.426Z,4657.50
2018-06-29T11:01:10.367Z,4556.25
2018-06-29T11:02:10.314Z,4623.75
2018-06-29T11:03:10.240Z,4578.75
2018-06-29T11:04:10.183Z,4803.75
2018-06-29T11:05:10.126Z,4944.38
2018-06-29T11:06:10.061Z,4843.13
2018-06-29T11:07:10.098Z,4775.63
2018-06-29T11:08:09.934Z,4736.25
2018-06-29T11:09:09.914Z,4612.50
2018-06-29T11:10:09.820Z,4618.13
2018-06-29T11:12:51.966Z,4725.00
2018-06-29T11:13:51.899Z,4758.75
2018-06-29T11:14:51.825Z,4657.50
2018-06-29T11:17:33.945Z,4297.50
2018-06-29T11:18:33.893Z,4640.63
2018-06-29T11:19:33.830Z,4820.63
2018-06-29T11:20:33.747Z,4708.13
2018-06-29T11:21:33.681Z,4612.50
2018-06-29T11:22:34.676Z,4781.25
2018-06-29T11:23:33.577Z,3965.63
2018-06-29T11:24:33.504Z,2458.13
2018-06-29T11:25:33.455Z,2103.75
2018-06-29T11:26:33.381Z,2418.75
2018-06-29T11:27:33.327Z,3420.00
2018-06-29T11:28:34.279Z,4438.13
2018-06-29T11:29:33.197Z,4539.38
2018-06-29T11:30:33.130Z,4488.75
2018-06-29T11:31:33.066Z,4410.00
2018-06-29T11:34:14.961Z,4578.75
2018-06-29T11:36:56.927Z,4573.13
2018-06-29T11:39:38.951Z,4477.50
2018-06-29T11:40:38.870Z,4685.63
2018-06-29T11:41:38.810Z,4578.75
2018-06-29T11:44:20.947Z,4179.38
2018-06-29T11:47:02.940Z,4078.13
2018-06-29T11:48:02.871Z,4173.75
2018-06-29T11:49:02.827Z,4241.25
2018-06-29T11:50:02.754Z,4353.75
2018-06-29T11:51:02.676Z,4494.38
2018-06-29T11:52:02.709Z,4494.38
2018-06-29T11:53:02.620Z,4111.88
2018-06-29T11:54:02.521Z,4156.88
2018-06-29T11:55:02.451Z,4325.63
2018-06-29T11:56:02.404Z,4066.88
2018-06-29T11:57:02.317Z,3864.38
2018-06-29T11:58:02.307Z,2823.75
2018-06-29T11:59:02.215Z,838.13
2018-06-29T12:01:44.450Z,348.75
2018-06-29T12:02:44.376Z,309.38
2018-06-29T12:03:44.352Z,320.63
2018-06-29T12:04:44.249Z,320.63
2018-06-29T12:05:44.186Z,315.00
2018-06-29T12:06:44.135Z,320.63
2018-06-29T12:07:44.047Z,315.00
2018-06-29T12:08:44.006Z,309.38
2018-06-29T12:09:43.945Z,309.38
2018-06-29T12:10:43.911Z,315.00
2018-06-29T12:11:43.781Z,315.00
2018-06-29T12:14:25.971Z,303.75
2018-06-29T12:17:07.941Z,303.75
2018-06-29T12:18:07.893Z,303.75
2018-06-29T12:19:07.819Z,303.75
2018-06-29T12:20:07.771Z,298.13
2018-06-29T12:21:07.679Z,298.13
2018-06-29T12:22:07.593Z,292.50
2018-06-29T12:23:07.526Z,292.50
2018-06-29T12:24:07.463Z,286.88
2018-06-29T12:25:07.430Z,281.25
2018-06-29T12:26:07.328Z,281.25
2018-06-29T12:27:07.245Z,286.88
2018-06-29T12:29:49.509Z,286.88
2018-06-29T12:30:50.406Z,286.88
2018-06-29T12:31:49.295Z,281.25
2018-06-29T12:32:49.243Z,281.25
2018-06-29T12:33:49.191Z,281.25
2018-06-29T12:34:49.104Z,286.88
2018-06-29T12:35:49.076Z,281.25
2018-06-29T12:38:30.951Z,281.25
2018-06-29T12:39:30.876Z,281.25
2018-06-29T12:40:30.823Z,281.25
2018-06-29T12:41:30.742Z,286.88
2018-06-29T12:42:30.694Z,281.25
2018-06-29T12:45:12.992Z,275.63
2018-06-29T12:47:54.965Z,270.00
2018-06-29T12:48:54.882Z,270.00
2018-06-29T12:49:54.813Z,270.00
2018-06-29T12:50:55.865Z,264.38
2018-06-29T12:51:54.694Z,264.38
2018-06-29T12:52:54.602Z,270.00
2018-06-29T12:53:54.522Z,270.00
2018-06-29T12:54:54.572Z,258.75
2018-06-29T12:55:54.419Z,270.00
2018-06-29T12:56:54.337Z,264.38
2018-06-29T12:57:54.281Z,264.38
2018-06-29T12:58:54.198Z,264.38
2018-06-29T12:59:54.150Z,270.00
2018-06-29T13:00:54.064Z,264.38
2018-06-29T13:01:53.956Z,264.38
2018-06-29T13:02:53.910Z,264.38
2018-06-29T13:03:53.818Z,264.38
2018-06-29T13:04:53.792Z,258.75
2018-06-29T13:05:53.696Z,253.13
2018-06-29T13:06:53.643Z,253.13
2018-06-29T13:07:53.558Z,253.13
2018-06-29T13:10:35.497Z,253.13
2018-06-29T13:11:35.394Z,253.13
2018-06-29T13:12:35.335Z,258.75
2018-06-29T13:13:35.261Z,258.75
2018-06-29T13:14:35.196Z,258.75
2018-06-29T13:15:35.116Z,258.75
2018-06-29T13:16:35.060Z,258.75
2018-06-29T13:17:35.993Z,258.75
2018-06-29T13:18:34.905Z,253.13
2018-06-29T13:19:34.834Z,253.13
2018-06-29T13:20:34.751Z,253.13
2018-06-29T13:23:16.974Z,253.13
2018-06-29T13:25:58.975Z,253.13
2018-06-29T13:26:58.903Z,253.13
2018-06-29T13:27:58.846Z,253.13
2018-06-29T13:28:58.768Z,253.13
2018-06-29T13:29:58.675Z,253.13
2018-06-29T13:30:58.622Z,253.13
2018-06-29T13:31:58.590Z,253.13
2018-06-29T13:32:58.513Z,247.50
2018-06-29T13:33:58.411Z,247.50
2018-06-29T13:34:58.342Z,241.88
2018-06-29T13:35:58.285Z,241.88
2018-06-29T13:36:58.188Z,241.88
2018-06-29T13:37:58.137Z,241.88
2018-06-29T13:38:59.083Z,241.88
2018-06-29T13:39:57.969Z,241.88
2018-06-29T13:40:57.944Z,241.88
2018-06-29T13:41:57.842Z,241.88
2018-06-29T13:42:57.759Z,230.63
2018-06-29T13:43:57.771Z,241.88
2018-06-29T13:44:57.680Z,236.25
2018-06-29T13:45:57.570Z,241.88
2018-06-29T13:46:57.506Z,241.88
2018-06-29T13:47:57.406Z,241.88
2018-06-29T13:48:57.366Z,241.88
2018-06-29T13:49:57.272Z,241.88
2018-06-29T13:50:57.204Z,241.88
2018-06-29T13:51:57.200Z,236.25
2018-06-29T13:52:57.069Z,236.25
2018-06-29T13:53:57.008Z,236.25
2018-06-29T13:54:56.992Z,230.63
2018-06-29T13:55:56.830Z,236.25
2018-06-29T13:56:56.833Z,236.25
2018-06-29T13:57:56.730Z,230.63
2018-06-29T13:58:56.651Z,230.63
2018-06-29T13:59:56.554Z,230.63
2018-06-29T14:02:38.531Z,219.38
2018-06-29T14:03:38.424Z,213.75
2018-06-29T14:04:38.386Z,213.75
2018-06-29T14:05:38.291Z,230.63
2018-06-29T14:06:38.185Z,230.63
2018-06-29T14:07:38.128Z,230.63
2018-06-29T14:08:38.052Z,230.63
2018-06-29T14:09:38.000Z,225.00
2018-06-29T14:10:37.910Z,225.00
2018-06-29T14:11:37.854Z,230.63
2018-06-29T14:12:37.781Z,230.63
2018-06-29T14:13:37.702Z,230.63
2018-06-29T14:14:37.647Z,225.00
2018-06-29T14:15:37.560Z,225.00
2018-06-29T14:16:37.503Z,225.00
2018-06-29T14:17:37.429Z,225.00
2018-06-29T14:18:37.341Z,225.00
2018-06-29T14:19:38.328Z,225.00
2018-06-29T14:20:37.222Z,225.00
2018-06-29T14:23:19.502Z,213.75
2018-06-29T14:24:19.425Z,225.00
2018-06-29T14:25:19.369Z,225.00
2018-06-29T14:26:19.277Z,225.00
2018-06-29T14:27:19.230Z,213.75
2018-06-29T14:28:19.154Z,219.38
2018-06-29T14:29:19.098Z,219.38
2018-06-29T14:30:19.011Z,219.38
2018-06-29T14:31:18.922Z,219.38
2018-06-29T14:32:18.851Z,219.38
2018-06-29T14:33:18.831Z,219.38
2018-06-29T14:34:19.735Z,219.38
2018-06-29T14:35:18.632Z,219.38
2018-06-29T14:36:18.573Z,213.75
2018-06-29T14:37:18.492Z,213.75
2018-06-29T14:38:18.424Z,213.75
2018-06-29T14:39:18.352Z,213.75
2018-06-29T14:40:18.308Z,213.75
2018-06-29T14:41:18.264Z,208.13
2018-06-29T14:42:18.144Z,208.13
2018-06-29T14:43:18.083Z,208.13
2018-06-29T14:44:18.011Z,208.13
2018-06-29T14:45:17.945Z,208.13
2018-06-29T14:46:17.872Z,208.13
2018-06-29T14:47:17.770Z,208.13
2018-06-29T14:48:17.710Z,202.50
2018-06-29T14:49:17.631Z,202.50
2018-06-29T14:50:17.631Z,202.50
2018-06-29T14:51:17.496Z,202.50
2018-06-29T14:53:59.495Z,202.50
2018-06-29T14:54:59.440Z,202.50
2018-06-29T14:55:59.354Z,202.50
2018-06-29T14:56:59.381Z,202.50
2018-06-29T14:57:59.219Z,196.88
2018-06-29T14:58:59.184Z,196.88
2018-06-29T14:59:59.088Z,185.63
2018-06-29T15:02:40.992Z,196.88
2018-06-29T15:03:40.928Z,191.25
2018-06-29T15:04:40.875Z,191.25
2018-06-29T15:05:41.802Z,196.88
2018-06-29T15:06:40.723Z,196.88
2018-06-29T15:09:23.018Z,196.88
2018-06-29T15:10:23.957Z,196.88
2018-06-29T15:11:22.868Z,196.88
2018-06-29T15:12:22.802Z,196.88
2018-06-29T15:13:22.720Z,196.88
2018-06-29T15:16:05.097Z,191.25
2018-06-29T15:17:04.975Z,191.25
2018-06-29T15:18:04.862Z,191.25
2018-06-29T15:19:04.805Z,191.25
2018-06-29T15:20:04.719Z,191.25
2018-06-29T15:22:47.033Z,185.63
2018-06-29T15:23:46.940Z,191.25
2018-06-29T15:24:46.867Z,191.25
2018-06-29T15:25:46.834Z,191.25
2018-06-29T15:26:46.748Z,191.25
2018-06-29T15:27:46.669Z,191.25
2018-06-29T15:28:46.579Z,191.25
2018-06-29T15:29:46.513Z,191.25
2018-06-29T15:30:46.473Z,191.25
2018-06-29T15:31:46.375Z,191.25
2018-06-29T15:32:46.328Z,185.63
2018-06-29T15:33:46.246Z,185.63
2018-06-29T15:34:46.147Z,185.63
2018-06-29T15:37:28.036Z,185.63
2018-06-29T15:40:10.024Z,185.63
2018-06-29T15:41:09.987Z,185.63
2018-06-29T15:42:09.904Z,185.63
2018-06-29T15:43:09.826Z,180.00
2018-06-29T15:44:09.726Z,180.00
2018-06-29T15:45:09.667Z,180.00
2018-06-29T15:46:09.607Z,180.00
2018-06-29T15:47:10.083Z,180.00
2018-06-29T15:48:09.489Z,180.00
2018-06-29T15:49:09.377Z,180.00
2018-06-29T15:50:09.299Z,174.38
2018-06-29T15:51:09.237Z,180.00
2018-06-29T15:52:09.177Z,180.00
2018-06-29T15:53:09.106Z,180.00
2018-06-29T15:54:09.020Z,180.00
2018-06-29T15:55:09.024Z,180.00
2018-06-29T15:56:08.897Z,180.00
2018-06-29T15:57:09.862Z,180.00
2018-06-29T15:58:08.746Z,180.00
2018-06-29T15:59:08.676Z,180.00
2018-06-29T16:00:08.574Z,174.38
2018-06-29T16:01:08.516Z,174.38
2018-06-29T16:02:08.434Z,174.38
2018-06-29T16:03:08.418Z,180.00
2018-06-29T16:04:08.319Z,174.38
2018-06-29T16:06:50.578Z,174.38
2018-06-29T16:07:50.481Z,174.38
2018-06-29T16:08:50.387Z,174.38
2018-06-29T16:09:50.360Z,168.75
2018-06-29T16:10:50.250Z,168.75
2018-06-29T16:11:50.185Z,168.75
2018-06-29T16:12:50.145Z,168.75
2018-06-29T16:13:50.044Z,174.38
2018-06-29T16:14:49.953Z,174.38
2018-06-29T16:17:32.030Z,168.75
2018-06-29T16:18:31.990Z,168.75
2018-06-29T16:19:31.894Z,168.75
2018-06-29T16:22:14.034Z,168.75
2018-06-29T16:23:14.005Z,168.75
2018-06-29T16:24:13.904Z,168.75
2018-06-29T16:25:13.825Z,168.75
2018-06-29T16:26:13.743Z,168.75
2018-06-29T16:28:56.052Z,168.75
2018-06-29T16:29:55.980Z,168.75
2018-06-29T16:30:55.899Z,168.75
2018-06-29T16:31:55.824Z,168.75
2018-06-29T16:32:55.773Z,168.75
2018-06-29T16:33:55.713Z,168.75
2018-06-29T16:34:55.609Z,168.75
2018-06-29T16:35:55.539Z,168.75
2018-06-29T16:36:55.466Z,168.75
2018-06-29T16:37:55.399Z,168.75
2018-06-29T16:38:55.315Z,168.75
2018-06-29T16:39:55.284Z,168.75
2018-06-29T16:40:55.231Z,168.75
2018-06-29T16:41:55.117Z,163.13
2018-06-29T16:42:55.052Z,163.13
2018-06-29T16:43:54.967Z,157.50
2018-06-29T16:44:54.894Z,157.50
2018-06-29T16:45:54.849Z,157.50
2018-06-29T16:46:54.735Z,157.50
2018-06-29T16:47:54.673Z,157.50
2018-06-29T16:48:54.604Z,157.50
2018-06-29T16:49:54.583Z,157.50
2018-06-29T16:50:54.441Z,157.50
2018-06-29T16:51:54.383Z,157.50
2018-06-29T16:52:54.305Z,157.50
2018-06-29T16:53:55.246Z,163.13
2018-06-29T16:54:54.173Z,157.50
2018-06-29T16:55:54.090Z,157.50
2018-06-29T16:56:54.023Z,157.50
2018-06-29T16:57:53.942Z,157.50
2018-06-29T16:58:53.918Z,157.50
2018-06-29T16:59:53.802Z,157.50
2018-06-29T17:00:53.751Z,157.50
2018-06-29T17:01:53.662Z,157.50
2018-06-29T17:02:53.592Z,151.88
2018-06-29T17:03:53.555Z,151.88
2018-06-29T17:04:53.467Z,151.88
2018-06-29T17:05:53.375Z,151.88
2018-06-29T17:06:53.304Z,151.88
2018-06-29T17:09:35.563Z,151.88
2018-06-29T17:10:36.491Z,151.88
2018-06-29T17:11:35.413Z,151.88
2018-06-29T17:14:17.559Z,151.88
2018-06-29T17:15:17.550Z,151.88
2018-06-29T17:16:17.438Z,146.25
2018-06-29T17:17:17.345Z,146.25
2018-06-29T17:18:17.269Z,146.25
2018-06-29T17:19:17.211Z,146.25
2018-06-29T17:20:17.111Z,146.25
2018-06-29T17:21:17.089Z,146.25
2018-06-29T17:22:16.981Z,146.25
2018-06-29T17:23:16.915Z,146.25
2018-06-29T17:24:16.824Z,146.25
2018-06-29T17:25:16.773Z,146.25
2018-06-29T17:26:16.717Z,140.63
2018-06-29T17:27:16.608Z,140.63
2018-06-29T17:28:16.552Z,140.63
2018-06-29T17:29:16.481Z,140.63
2018-06-29T17:30:16.427Z,140.63
2018-06-29T17:31:16.370Z,135.00
2018-06-29T17:32:16.247Z,135.00
2018-06-29T17:33:16.191Z,135.00
2018-06-29T17:34:16.140Z,135.00
2018-06-29T17:35:16.042Z,135.00